Aviation Digital Data Service (ADDS)

Output produced by TAFs form (1158 UTC 17 December 2017)
found at http://aviationweather.gov/adds/tafs/
 
KTCC 171120Z 1712/1812 29007KT P6SM BKN250 
     FM171400 36006KT P6SM SCT140 BKN200 
     FM171800 10006KT P6SM SCT140 SCT200 
     FM180200 19006KT P6SM SCT100 BKN150